createdAt,value
2023-03-27T00:01:17.838Z,0.00
2023-03-27T00:03:49.354Z,0.03
2023-03-27T00:06:18.169Z,0.20
2023-03-27T00:08:49.018Z,0.20
2023-03-27T00:11:15.946Z,0.20
2023-03-27T00:13:50.806Z,0.20
2023-03-27T00:16:27.637Z,0.40
2023-03-27T00:18:55.106Z,0.25
2023-03-27T00:21:22.590Z,0.20
2023-03-27T00:23:49.760Z,0.20
2023-03-27T00:26:16.334Z,0.30
2023-03-27T00:28:43.915Z,0.50
2023-03-27T00:31:13.078Z,0.50
2023-03-27T00:33:40.488Z,0.40
2023-03-27T00:36:07.825Z,0.50
2023-03-27T00:38:34.353Z,0.60
2023-03-27T00:41:01.148Z,0.80
2023-03-27T00:43:33.923Z,0.77
2023-03-27T00:46:31.912Z,0.95
2023-03-27T00:49:01.734Z,0.70
2023-03-27T00:51:29.270Z,0.90
2023-03-27T00:53:56.707Z,0.88
2023-03-27T00:56:23.906Z,0.95
2023-03-27T00:58:55.619Z,1.00
2023-03-27T01:01:26.196Z,0.90
2023-03-27T01:03:53.855Z,1.10
2023-03-27T01:06:21.742Z,1.10
2023-03-27T01:08:48.304Z,0.90
2023-03-27T01:11:37.601Z,0.93
2023-03-27T01:14:29.213Z,1.00
2023-03-27T01:17:11.638Z,1.30
2023-03-27T01:20:07.150Z,1.13
2023-03-27T01:22:55.165Z,1.20
2023-03-27T01:25:41.984Z,1.17
2023-03-27T01:28:42.489Z,1.63
2023-03-27T01:31:43.817Z,2.17
2023-03-27T01:34:43.773Z,1.40
2023-03-27T01:37:38.981Z,1.48
2023-03-27T01:40:19.999Z,1.55
2023-03-27T01:43:03.665Z,1.65
2023-03-27T01:45:55.449Z,1.80
2023-03-27T01:48:33.464Z,1.63
2023-03-27T01:51:06.648Z,1.67
2023-03-27T01:53:42.200Z,2.08
2023-03-27T01:56:18.507Z,1.95
2023-03-27T01:58:49.600Z,1.95
2023-03-27T02:01:22.374Z,2.00
2023-03-27T02:03:54.330Z,2.13
2023-03-27T02:06:30.192Z,2.42
2023-03-27T02:09:28.422Z,2.45
2023-03-27T02:12:01.162Z,2.05
2023-03-27T02:14:33.737Z,2.17
2023-03-27T02:17:07.989Z,2.53
2023-03-27T02:19:40.983Z,2.22
2023-03-27T02:22:07.853Z,2.38
2023-03-27T02:24:34.398Z,2.20
2023-03-27T02:27:29.333Z,1.83
2023-03-27T02:29:58.919Z,2.30
2023-03-27T02:32:32.413Z,2.10
2023-03-27T02:35:20.956Z,2.17
2023-03-27T02:38:20.505Z,2.25
2023-03-27T02:41:03.828Z,1.90
2023-03-27T02:44:00.906Z,1.70
2023-03-27T02:46:40.329Z,2.45
2023-03-27T02:49:13.376Z,1.75
2023-03-27T02:51:49.397Z,1.70
2023-03-27T02:54:21.971Z,1.77
2023-03-27T02:57:02.083Z,1.80
2023-03-27T02:59:39.170Z,2.03
2023-03-27T03:02:12.254Z,1.98
2023-03-27T03:04:46.292Z,1.58
2023-03-27T03:07:14.394Z,2.08
2023-03-27T03:09:42.538Z,2.10
2023-03-27T03:12:09.428Z,1.73
2023-03-27T03:14:39.911Z,1.88
2023-03-27T03:17:06.611Z,1.70
2023-03-27T03:19:33.166Z,1.90
2023-03-27T03:22:00.544Z,1.80
2023-03-27T03:24:27.621Z,1.95
2023-03-27T03:26:54.253Z,1.85
2023-03-27T03:29:20.789Z,1.90
2023-03-27T03:31:48.615Z,1.83
2023-03-27T03:34:18.556Z,1.50
2023-03-27T03:36:49.196Z,1.85
2023-03-27T03:39:17.637Z,1.50
2023-03-27T03:41:44.320Z,1.85
2023-03-27T03:44:10.961Z,1.30
2023-03-27T03:46:37.879Z,1.50
2023-03-27T03:49:05.006Z,1.30
2023-03-27T03:51:32.410Z,1.60
2023-03-27T03:53:59.310Z,1.42
2023-03-27T03:56:27.810Z,1.48
2023-03-27T03:58:54.373Z,1.73
2023-03-27T04:01:21.449Z,1.45
2023-03-27T04:03:49.218Z,1.70
2023-03-27T04:06:25.620Z,1.23
2023-03-27T04:08:53.252Z,1.30
2023-03-27T04:11:21.114Z,1.10
2023-03-27T04:13:47.834Z,1.38
2023-03-27T04:16:15.169Z,1.30
2023-03-27T04:18:42.495Z,1.40
2023-03-27T04:21:16.080Z,1.40
2023-03-27T04:23:45.225Z,1.10
2023-03-27T04:26:12.623Z,1.98
2023-03-27T04:28:40.136Z,1.38
2023-03-27T04:31:08.438Z,1.30
2023-03-27T04:33:39.177Z,1.23
2023-03-27T04:36:07.971Z,1.40
2023-03-27T04:38:39.232Z,1.15
2023-03-27T04:41:06.676Z,1.15
2023-03-27T04:43:36.799Z,1.60
2023-03-27T04:46:07.522Z,1.50
2023-03-27T04:48:35.046Z,1.27
2023-03-27T04:51:01.602Z,1.13
2023-03-27T04:53:30.359Z,1.13
2023-03-27T04:55:57.294Z,1.40
2023-03-27T04:58:26.162Z,1.27
2023-03-27T05:00:56.463Z,1.23
2023-03-27T05:03:24.173Z,1.70
2023-03-27T05:05:51.006Z,1.80
2023-03-27T05:08:18.762Z,1.30
2023-03-27T05:10:46.492Z,1.15
2023-03-27T05:13:13.346Z,1.30
2023-03-27T05:15:39.913Z,1.08
2023-03-27T05:18:07.195Z,1.63
2023-03-27T05:20:34.924Z,1.92
2023-03-27T05:23:01.579Z,1.75
2023-03-27T05:25:28.974Z,1.35
2023-03-27T05:27:55.641Z,1.48
2023-03-27T05:30:24.143Z,2.22
2023-03-27T05:32:52.457Z,1.70
2023-03-27T05:35:21.535Z,1.70
2023-03-27T05:37:50.427Z,1.67
2023-03-27T05:40:22.436Z,1.70
2023-03-27T05:42:50.447Z,1.77
2023-03-27T05:45:18.319Z,2.10
2023-03-27T05:48:03.869Z,1.58
2023-03-27T05:50:33.266Z,1.80
2023-03-27T05:53:02.005Z,1.60
2023-03-27T05:55:28.625Z,2.03
2023-03-27T05:57:55.365Z,1.88
2023-03-27T06:00:25.768Z,1.75
2023-03-27T06:02:57.242Z,2.30
2023-03-27T06:05:26.479Z,1.75
2023-03-27T06:07:53.166Z,1.92
2023-03-27T06:10:22.790Z,1.80
2023-03-27T06:12:49.371Z,1.83
2023-03-27T06:15:16.471Z,1.90
2023-03-27T06:17:44.059Z,1.90
2023-03-27T06:20:12.653Z,1.63
2023-03-27T06:22:45.735Z,1.63
2023-03-27T06:25:12.569Z,1.85
2023-03-27T06:27:41.904Z,1.83
2023-03-27T06:30:09.504Z,1.73
2023-03-27T06:32:36.510Z,1.58
2023-03-27T06:35:03.742Z,2.03
2023-03-27T06:37:33.908Z,2.17
2023-03-27T06:40:00.445Z,1.90
2023-03-27T06:42:27.006Z,2.22
2023-03-27T06:44:53.526Z,2.10
2023-03-27T06:47:20.135Z,2.53
2023-03-27T06:49:47.843Z,2.50
2023-03-27T06:52:15.288Z,3.10
2023-03-27T06:54:41.878Z,2.75
2023-03-27T06:57:08.544Z,2.40
2023-03-27T06:59:35.221Z,2.50
2023-03-27T07:02:01.960Z,2.60
2023-03-27T07:04:29.034Z,2.30
2023-03-27T07:06:55.565Z,2.65
2023-03-27T07:09:22.074Z,2.50
2023-03-27T07:11:48.611Z,2.67
2023-03-27T07:14:15.718Z,2.90
2023-03-27T07:16:42.322Z,3.25
2023-03-27T07:19:08.902Z,3.63
2023-03-27T07:21:35.584Z,3.38
2023-03-27T07:24:02.326Z,2.60
2023-03-27T07:26:29.369Z,2.42
2023-03-27T07:28:55.942Z,2.53
2023-03-27T07:33:52.314Z,1.30
2023-03-27T07:36:18.894Z,1.33
2023-03-27T07:38:46.812Z,0.80
2023-03-27T07:41:13.785Z,0.88
2023-03-27T07:43:40.354Z,0.70
2023-03-27T07:46:07.308Z,0.45
2023-03-27T07:48:35.867Z,0.30
2023-03-27T07:51:13.394Z,0.50
2023-03-27T07:53:41.678Z,0.55
2023-03-27T07:56:08.844Z,0.30
2023-03-27T07:58:35.519Z,0.20
2023-03-27T08:01:02.869Z,0.13
2023-03-27T08:03:30.937Z,0.40
2023-03-27T08:05:59.934Z,0.40
2023-03-27T08:08:27.694Z,0.38
2023-03-27T08:10:55.503Z,0.50
2023-03-27T08:13:22.052Z,0.40
2023-03-27T08:15:48.632Z,0.30
2023-03-27T08:18:15.469Z,0.30
2023-03-27T08:20:42.472Z,0.40
2023-03-27T08:23:09.129Z,0.77
2023-03-27T08:25:35.882Z,0.30
2023-03-27T08:28:02.986Z,0.30
2023-03-27T08:30:30.186Z,0.30
2023-03-27T08:33:00.134Z,0.30
2023-03-27T08:35:27.021Z,0.40
2023-03-27T08:37:54.057Z,0.30
2023-03-27T08:40:26.169Z,0.30
2023-03-27T08:42:57.171Z,0.40
2023-03-27T08:45:34.046Z,0.30
2023-03-27T08:48:05.476Z,0.38
2023-03-27T08:50:56.801Z,0.30
2023-03-27T08:53:47.477Z,0.40
2023-03-27T08:56:18.373Z,0.70
2023-03-27T08:58:45.655Z,0.30
2023-03-27T09:01:21.635Z,0.35
2023-03-27T09:03:48.247Z,0.40
2023-03-27T09:06:34.191Z,0.30
2023-03-27T09:09:09.930Z,0.50
2023-03-27T09:11:56.934Z,0.47
2023-03-27T09:14:31.600Z,0.32
2023-03-27T09:17:03.409Z,0.30
2023-03-27T09:19:43.403Z,0.30
2023-03-27T09:22:24.320Z,0.40
2023-03-27T09:24:54.954Z,0.40
2023-03-27T09:27:26.598Z,0.40
2023-03-27T09:30:10.985Z,0.40
2023-03-27T09:32:39.125Z,0.40
2023-03-27T09:35:05.923Z,0.50
2023-03-27T09:37:34.097Z,0.40
2023-03-27T09:40:05.977Z,0.65
2023-03-27T09:42:41.153Z,0.50
2023-03-27T09:45:11.106Z,0.50
2023-03-27T09:48:02.577Z,0.50
2023-03-27T09:50:47.042Z,0.50
2023-03-27T09:53:18.255Z,0.60
2023-03-27T09:56:05.433Z,0.50
2023-03-27T09:58:41.601Z,0.68
2023-03-27T10:01:27.736Z,0.45
2023-03-27T10:03:59.736Z,0.60
2023-03-27T10:06:29.599Z,0.30
2023-03-27T10:09:01.028Z,0.55
2023-03-27T10:11:31.775Z,0.60
2023-03-27T10:14:00.524Z,0.70
2023-03-27T10:16:29.163Z,0.68
2023-03-27T10:18:59.243Z,0.65
2023-03-27T10:21:35.484Z,0.80
2023-03-27T10:24:19.363Z,0.80
2023-03-27T10:26:48.211Z,1.15
2023-03-27T10:29:41.418Z,1.50
2023-03-27T10:32:08.171Z,1.02
2023-03-27T10:34:50.804Z,0.98
2023-03-27T10:37:35.365Z,1.10
2023-03-27T10:40:09.483Z,1.20
2023-03-27T10:42:36.950Z,0.90
2023-03-27T10:45:04.376Z,1.13
2023-03-27T10:47:33.582Z,1.33
2023-03-27T10:50:08.103Z,1.20
2023-03-27T10:52:46.729Z,1.05
2023-03-27T10:55:22.486Z,1.40
2023-03-27T10:57:54.408Z,1.10
2023-03-27T11:00:22.631Z,0.80
2023-03-27T11:02:57.614Z,1.02
2023-03-27T11:05:30.231Z,0.80
2023-03-27T11:08:03.943Z,0.90
2023-03-27T11:10:41.835Z,0.80
2023-03-27T11:13:23.646Z,1.00
2023-03-27T11:16:04.247Z,1.15
2023-03-27T11:18:37.711Z,1.00
2023-03-27T11:21:37.035Z,1.00
2023-03-27T11:24:09.669Z,1.33
2023-03-27T11:26:44.262Z,0.98
2023-03-27T11:29:20.528Z,0.90
2023-03-27T11:31:51.688Z,1.30
2023-03-27T11:34:29.460Z,1.02
2023-03-27T11:37:11.211Z,1.20
2023-03-27T11:39:53.156Z,1.50
2023-03-27T11:42:31.150Z,1.25
2023-03-27T11:44:58.815Z,1.17
2023-03-27T11:47:51.916Z,0.93
2023-03-27T11:50:39.864Z,1.20
2023-03-27T11:53:09.395Z,1.60
2023-03-27T11:56:00.391Z,1.35
2023-03-27T11:58:35.766Z,1.90
2023-03-27T12:01:21.672Z,1.20
2023-03-27T12:03:54.583Z,0.87
2023-03-27T12:06:36.441Z,1.20
2023-03-27T12:09:36.677Z,1.40
2023-03-27T12:12:28.716Z,1.00
2023-03-27T12:15:27.437Z,1.00
2023-03-27T12:17:58.168Z,1.80
2023-03-27T12:20:52.539Z,1.30
2023-03-27T12:23:22.520Z,1.50
2023-03-27T12:25:54.827Z,1.20
2023-03-27T12:28:47.428Z,1.65
2023-03-27T12:31:49.135Z,1.73
2023-03-27T12:34:39.939Z,1.48
2023-03-27T12:37:12.204Z,1.50
2023-03-27T12:40:14.318Z,1.63
2023-03-27T12:42:43.999Z,1.75
2023-03-27T12:45:18.024Z,1.67
2023-03-27T12:48:04.607Z,1.92
2023-03-27T12:50:35.333Z,1.77
2023-03-27T12:53:05.660Z,1.95
2023-03-27T12:55:35.834Z,1.92
2023-03-27T12:58:05.136Z,1.88
2023-03-27T13:00:32.520Z,1.60
2023-03-27T13:03:24.124Z,1.75
2023-03-27T13:06:22.552Z,1.98
2023-03-27T13:09:11.134Z,1.83
2023-03-27T13:12:26.444Z,2.10
2023-03-27T13:15:06.702Z,1.80
2023-03-27T13:17:46.638Z,1.67
2023-03-27T13:20:22.171Z,1.80
2023-03-27T13:23:19.726Z,1.92
2023-03-27T13:26:20.337Z,1.50
2023-03-27T13:28:53.050Z,1.27
2023-03-27T13:31:44.687Z,1.70
2023-03-27T13:34:34.204Z,1.63
2023-03-27T13:37:10.053Z,1.20
2023-03-27T13:40:10.803Z,2.00
2023-03-27T13:42:42.855Z,1.38
2023-03-27T13:45:15.477Z,1.50
2023-03-27T13:47:57.811Z,1.30
2023-03-27T13:50:52.181Z,1.17
2023-03-27T13:53:32.858Z,1.30
2023-03-27T13:56:17.285Z,1.17
2023-03-27T13:59:01.569Z,1.45
2023-03-27T14:01:52.062Z,1.30
2023-03-27T14:04:51.401Z,0.80
2023-03-27T14:07:48.092Z,0.80
2023-03-27T14:10:23.792Z,1.02
2023-03-27T14:12:59.096Z,1.17
2023-03-27T14:15:40.768Z,1.08
2023-03-27T14:18:22.463Z,1.10
2023-03-27T14:20:55.236Z,1.05
2023-03-27T14:23:28.488Z,1.05
2023-03-27T14:26:01.805Z,0.90
2023-03-27T14:28:56.183Z,1.10
2023-03-27T14:31:24.082Z,0.63
2023-03-27T14:33:53.686Z,0.90
2023-03-27T14:36:30.173Z,0.80
2023-03-27T14:39:14.167Z,1.00
2023-03-27T14:41:54.419Z,0.80
2023-03-27T14:44:21.498Z,0.80
2023-03-27T14:46:49.381Z,1.13
2023-03-27T14:49:24.790Z,0.73
2023-03-27T14:51:54.045Z,0.43
2023-03-27T14:54:31.340Z,0.70
2023-03-27T14:57:05.780Z,0.70
2023-03-27T14:59:36.364Z,1.00
2023-03-27T15:02:15.000Z,0.60
2023-03-27T15:04:41.753Z,0.90
2023-03-27T15:07:13.225Z,0.95
2023-03-27T15:09:40.018Z,0.80
2023-03-27T15:12:11.387Z,0.82
2023-03-27T15:14:39.006Z,0.70
2023-03-27T15:17:11.894Z,0.88
2023-03-27T15:19:56.893Z,0.80
2023-03-27T15:22:47.415Z,0.80
2023-03-27T15:25:17.801Z,0.63
2023-03-27T15:27:52.870Z,0.70
2023-03-27T15:30:37.645Z,0.70
2023-03-27T15:33:08.225Z,0.68
2023-03-27T15:35:45.679Z,0.80
2023-03-27T15:38:15.800Z,0.95
2023-03-27T15:40:44.617Z,0.77
2023-03-27T15:43:14.155Z,0.73
2023-03-27T15:46:26.516Z,0.90
2023-03-27T15:48:56.460Z,0.77
2023-03-27T15:51:22.952Z,0.80
2023-03-27T15:53:58.800Z,0.70
2023-03-27T15:56:34.441Z,1.08
2023-03-27T15:59:06.398Z,0.98
2023-03-27T16:01:53.911Z,1.15
2023-03-27T16:04:32.792Z,1.02
2023-03-27T16:07:29.186Z,1.00
2023-03-27T16:10:05.113Z,0.93
2023-03-27T16:12:33.397Z,1.20
2023-03-27T16:15:01.608Z,0.80
2023-03-27T16:17:37.606Z,1.38
2023-03-27T16:20:11.512Z,0.90
2023-03-27T16:22:39.028Z,0.93
2023-03-27T16:25:12.275Z,1.10
2023-03-27T16:27:43.488Z,1.13
2023-03-27T16:30:22.191Z,1.05
2023-03-27T16:32:48.966Z,0.90
2023-03-27T16:35:15.951Z,0.82
2023-03-27T16:37:42.962Z,0.70
2023-03-27T16:40:10.459Z,1.02
2023-03-27T16:42:37.194Z,1.13
2023-03-27T16:45:05.158Z,1.50
2023-03-27T16:47:32.034Z,0.80
2023-03-27T16:50:11.021Z,1.10
2023-03-27T16:52:38.402Z,1.10
2023-03-27T16:55:07.184Z,1.00
2023-03-27T16:57:34.445Z,1.10
2023-03-27T17:00:01.214Z,1.10
2023-03-27T17:02:28.858Z,1.02
2023-03-27T17:04:55.798Z,1.23
2023-03-27T17:07:24.964Z,1.30
2023-03-27T17:09:51.665Z,0.93
2023-03-27T17:12:18.302Z,0.93
2023-03-27T17:14:44.946Z,1.30
2023-03-27T17:17:11.640Z,1.38
2023-03-27T17:19:38.165Z,1.10
2023-03-27T17:22:04.777Z,1.02
2023-03-27T20:19:53.169Z,1.57
2023-03-27T20:22:50.189Z,1.40
2023-03-27T20:25:41.330Z,1.60
2023-03-27T20:28:27.234Z,1.85
2023-03-27T20:31:12.262Z,1.60
2023-03-27T20:33:57.572Z,1.60
2023-03-27T20:36:43.384Z,1.73
2023-03-27T22:17:37.171Z,1.98
2023-03-27T22:20:05.730Z,2.40
2023-03-27T22:22:34.878Z,2.13
2023-03-27T22:25:03.154Z,1.90
2023-03-27T22:27:30.607Z,2.17
2023-03-27T22:29:57.266Z,2.33
2023-03-27T22:32:23.875Z,2.25
2023-03-27T22:34:50.525Z,2.10
2023-03-27T22:37:17.978Z,2.33
2023-03-27T22:39:44.510Z,2.47
2023-03-27T22:42:11.348Z,2.42
2023-03-27T22:44:37.951Z,2.72
2023-03-27T22:47:04.664Z,2.90
2023-03-27T22:49:31.340Z,2.78
2023-03-27T22:51:57.893Z,1.80
2023-03-27T22:55:46.462Z,1.65
2023-03-27T22:58:33.498Z,1.02
2023-03-27T23:01:20.460Z,0.70
2023-03-27T23:06:34.125Z,0.90
2023-03-27T23:09:00.741Z,0.75
2023-03-27T23:11:27.357Z,0.60
2023-03-27T23:13:53.925Z,0.60
2023-03-27T23:16:21.029Z,0.50
2023-03-27T23:18:47.725Z,0.70
2023-03-27T23:21:18.713Z,1.27
2023-03-27T23:23:45.764Z,1.27
2023-03-27T23:26:12.887Z,2.28
2023-03-27T23:28:41.846Z,2.80
2023-03-27T23:31:12.745Z,2.30
2023-03-27T23:33:41.694Z,2.10
2023-03-27T23:36:11.352Z,1.50
2023-03-27T23:38:38.722Z,1.35
2023-03-27T23:41:06.572Z,1.80
2023-03-27T23:43:33.706Z,1.30
2023-03-27T23:46:00.509Z,1.02
2023-03-27T23:48:28.692Z,1.25
2023-03-27T23:50:57.019Z,0.80
2023-03-27T23:53:26.206Z,0.90
2023-03-27T23:55:54.587Z,1.02
2023-03-27T23:58:21.152Z,0.70
